George Washington Bridge — 3EES2 — position and weather

sailwx.info

Track history (hours):
 
Tides and Currents Weather Stations Pressure Air Temp Water Temp Dewpoint Dewpoint Depression Visibility Wind Speed Wind Dir Waves Ship Positions

George Washington Bridge

Last reported at 2018-Feb-21 12:53 UTC. Time now 2018-Feb-23 02:35 UTC.
Position N 36°49' W 075°48'.

Length 284.7 m; beam 40 m.

Type: Cargo ship. MMSI: 371799000.

Date/timePositionNaut miles runAvg speedWind from/ knotsBaromVisibWave heightAir tempDewpointWater temp
2018-Feb-21 12:53N 36°49' W 075°48'4 9.5
2018-Feb-21 12:30N 36°51' W 075°52'5 9.2
2018-Feb-21 12:00N 36°54' W 075°56'5 9.3
2018-Feb-21 11:30N 36°57' W 076°01'713.2
2018-Feb-21 11:00N 36°59' W 076°09'713.1
2018-Feb-21 10:30N 37°00' W 076°17'5 9.3
2018-Feb-21 10:00N 36°57' W 076°20'1 2.4
2018-Feb-21 09:29N 36°55' W 076°20'0 0.0
2018-Feb-21 08:56N 36°55' W 076°20'0 0.0
2018-Feb-21 08:26N 36°55' W 076°20'0 0.0
2018-Feb-21 07:59N 36°55' W 076°20'0 0.0
2018-Feb-21 07:29N 36°55' W 076°20'0 0.0
2018-Feb-21 06:59N 36°55' W 076°20'0 0.0
2018-Feb-21 06:29N 36°55' W 076°20'0 0.0
2018-Feb-21 05:59N 36°55' W 076°20'0 0.0
2018-Feb-21 05:29N 36°55' W 076°20'0 0.0
2018-Feb-21 04:59N 36°55' W 076°20'0 0.0
2018-Feb-21 04:29N 36°55' W 076°20'0 0.0
2018-Feb-21 03:59N 36°55' W 076°20'0 0.0
2018-Feb-21 03:29N 36°55' W 076°20'0 0.0
2018-Feb-21 02:59N 36°55' W 076°20'0 0.0
2018-Feb-21 02:29N 36°55' W 076°20'0 0.0
2018-Feb-21 01:59N 36°55' W 076°20'0 0.0
2018-Feb-21 01:29N 36°55' W 076°20'0 0.0
2018-Feb-21 00:59N 36°55' W 076°20'0 0.0
2018-Feb-21 00:29N 36°55' W 076°20'0 0.0
2018-Feb-20 23:59N 36°55' W 076°20'0 0.0
2018-Feb-20 23:29N 36°55' W 076°20'0 0.0
2018-Feb-20 22:59N 36°55' W 076°20'0 0.0
2018-Feb-20 22:29N 36°55' W 076°20'0 0.0
2018-Feb-20 21:56N 36°55' W 076°20'0 0.0
2018-Feb-20 21:29N 36°55' W 076°20'0 0.0
2018-Feb-20 20:44N 36°55' W 076°20'0 0.0
2018-Feb-20 20:26N 36°55' W 076°20'0 0.0
2018-Feb-20 19:59N 36°55' W 076°20'0 0.0
2018-Feb-20 19:26N 36°55' W 076°20'0 0.0
2018-Feb-20 18:59N 36°55' W 076°20'0 0.0
2018-Feb-20 18:29N 36°55' W 076°20'0 0.0
2018-Feb-20 17:02N 36°55' W 076°20'0 0.0
2018-Feb-20 16:50N 36°55' W 076°20'0 0.0
2018-Feb-20 16:23N 36°55' W 076°20'0 0.0
2018-Feb-20 15:56N 36°55' W 076°20'0 0.0
2018-Feb-20 15:26N 36°55' W 076°20'0 0.0
2018-Feb-20 14:59N 36°55' W 076°20'0 0.0
2018-Feb-20 14:29N 36°55' W 076°20'0 0.0
2018-Feb-20 13:59N 36°55' W 076°20'0 0.0
2018-Feb-20 13:29N 36°55' W 076°20'0 0.0
2018-Feb-20 12:59N 36°55' W 076°20'0 0.0
2018-Feb-20 12:29N 36°55' W 076°20'0 0.0
2018-Feb-20 11:50N 36°55' W 076°20'0 0.0
2018-Feb-20 11:29N 36°55' W 076°20'1 1.1
2018-Feb-20 11:00N 36°56' W 076°20'3 5.5
2018-Feb-20 10:30N 36°59' W 076°20'5 8.6
2018-Feb-20 09:58N 37°01' W 076°15'612.2
2018-Feb-20 09:27N 36°59' W 076°08'612.9
2018-Feb-20 09:00N 36°57' W 076°01'4 7.8
2018-Feb-20 08:30N 36°56' W 075°56'4 8.0
2018-Feb-20 08:00N 36°53' W 075°52'5 9.1
2018-Feb-20 07:24N 36°50' W 075°46'4 8.5
2018-Feb-20 06:55N 36°47' W 075°43'37914.6
2018-Feb-19 04:56N 31°56' W 080°37'4 9.5
2018-Feb-19 04:30N 31°57' W 080°42'611.7
2018-Feb-19 04:00N 32°00' W 080°47'5 9.6
2018-Feb-19 03:30N 32°02' W 080°53'4 8.7
2018-Feb-19 03:01N 32°04' W 080°57'4 7.9
2018-Feb-19 02:31N 32°05' W 081°02'3 5.6
2018-Feb-19 02:00N 32°05' W 081°05'3 5.7
2018-Feb-19 01:31N 32°07' W 081°07'1 2.8
2018-Feb-19 01:01N 32°08' W 081°08'0 0.9
2018-Feb-19 00:30N 32°08' W 081°08'0 0.0
2018-Feb-18 23:54N 32°08' W 081°08'0 0.0
2018-Feb-18 23:30N 32°08' W 081°08'0 0.0
2018-Feb-18 23:00N 32°08' W 081°08'0 0.0
2018-Feb-18 22:30N 32°08' W 081°08'0 0.0
2018-Feb-18 22:00N 32°08' W 081°08'0 0.0
2018-Feb-18 21:30N 32°08' W 081°08'0 0.0
2018-Feb-18 21:00N 32°08' W 081°08'0 0.0
2018-Feb-18 20:30N 32°08' W 081°08'0 0.0
2018-Feb-18 20:00N 32°08' W 081°08'0 0.0
2018-Feb-18 19:30N 32°08' W 081°08'0 0.0
2018-Feb-18 19:00N 32°08' W 081°08'0 0.0
2018-Feb-18 18:30N 32°08' W 081°08'0 0.0
2018-Feb-18 17:54N 32°08' W 081°08'0 0.0
2018-Feb-18 17:30N 32°08' W 081°08'0 0.0
2018-Feb-18 17:00N 32°08' W 081°08'0 0.0
2018-Feb-18 16:30N 32°08' W 081°08'0 0.0
2018-Feb-18 16:00N 32°08' W 081°08'0 0.0
2018-Feb-18 15:30N 32°08' W 081°08'0 0.0
2018-Feb-18 15:00N 32°08' W 081°08'0 0.0
2018-Feb-18 14:30N 32°08' W 081°08'0 0.0
2018-Feb-18 14:00N 32°08' W 081°08'0 0.0
2018-Feb-18 13:30N 32°08' W 081°08'0 0.0
2018-Feb-18 13:00N 32°08' W 081°08'0 0.0
2018-Feb-18 12:30N 32°08' W 081°08'0 0.0
2018-Feb-18 12:00N 32°08' W 081°08'0 0.0
2018-Feb-18 11:30N 32°08' W 081°08'0 0.0
2018-Feb-18 11:00N 32°08' W 081°08'0 0.0
2018-Feb-18 10:30N 32°08' W 081°08'0 0.0
2018-Feb-18 09:54N 32°08' W 081°08'0 0.0
2018-Feb-18 09:30N 32°08' W 081°08'0 0.0
2018-Feb-18 09:00N 32°08' W 081°08'0 0.0
2018-Feb-18 08:30N 32°08' W 081°08'0 0.0
2018-Feb-18 08:00N 32°08' W 081°08'0 0.0
2018-Feb-18 07:30N 32°08' W 081°08'0 0.0
2018-Feb-18 07:00N 32°08' W 081°08'0 0.0
2018-Feb-18 06:30N 32°08' W 081°08'0 0.0
2018-Feb-18 06:00N 32°08' W 081°08'0 0.0
2018-Feb-18 05:30N 32°08' W 081°08'0 0.0
2018-Feb-18 05:00N 32°08' W 081°08'0 0.0
2018-Feb-18 04:30N 32°08' W 081°08'0 0.0
2018-Feb-18 03:54N 32°08' W 081°08'0 0.0
2018-Feb-18 03:24N 32°08' W 081°08'0 0.0
2018-Feb-18 03:00N 32°08' W 081°08'0 0.0
2018-Feb-18 02:30N 32°08' W 081°08'0 0.0
2018-Feb-18 02:00N 32°08' W 081°08'0 0.0
2018-Feb-18 01:30N 32°08' W 081°08'0 0.0
2018-Feb-18 01:00N 32°08' W 081°08'0 0.0
2018-Feb-18 00:30N 32°08' W 081°08'0 0.0
2018-Feb-18 00:00N 32°08' W 081°08'0 0.0
2018-Feb-17 23:30N 32°08' W 081°08'0 0.0
2018-Feb-17 23:00N 32°08' W 081°08'0 0.0
2018-Feb-17 22:30N 32°08' W 081°08'0 0.0
2018-Feb-17 22:00N 32°08' W 081°08'0 0.0
2018-Feb-17 21:30N 32°08' W 081°08'0 0.0
2018-Feb-17 21:00N 32°08' W 081°08'0 0.0
2018-Feb-17 20:30N 32°08' W 081°08'0 0.0
2018-Feb-17 20:00N 32°08' W 081°08'0 0.0
2018-Feb-17 19:30N 32°08' W 081°08'0 0.0
2018-Feb-17 19:00N 32°08' W 081°08'0 0.0
2018-Feb-17 18:30N 32°08' W 081°08'0 0.0
2018-Feb-17 18:00N 32°08' W 081°08'0 0.0
2018-Feb-17 17:30N 32°08' W 081°08'0 0.0
2018-Feb-17 17:00N 32°08' W 081°08'0 0.0
2018-Feb-17 16:18N 32°08' W 081°08'0 0.0
2018-Feb-17 16:00N 32°08' W 081°08'1 2.3
2018-Feb-17 15:30N 32°07' W 081°07'3 6.1
2018-Feb-17 15:00N 32°05' W 081°04'4 8.4
2018-Feb-17 14:30N 32°06' W 080°60'611.3
2018-Feb-17 14:00N 32°02' W 080°54'713.0
2018-Feb-17 13:28N 31°60' W 080°47'612.5
2018-Feb-17 12:58N 31°57' W 080°40'4 8.1
2018-Feb-17 12:30N 31°58' W 080°36'1 2.6
2018-Feb-17 12:00N 31°58' W 080°35'1 0.9
2018-Feb-17 11:19N 31°59' W 080°34'0 0.0
2018-Feb-17 10:49N 31°59' W 080°34'0 0.0
2018-Feb-17 10:25N 31°59' W 080°34'0 0.1
2018-Feb-17 09:55N 31°59' W 080°34'0 0.3
2018-Feb-17 09:25N 31°59' W 080°34'0 0.2
2018-Feb-17 08:55N 31°59' W 080°34'0 0.0
2018-Feb-17 08:19N 31°59' W 080°34'0 0.0
2018-Feb-17 07:55N 31°59' W 080°34'0 0.0
2018-Feb-17 07:19N 31°59' W 080°34'0 0.0
2018-Feb-17 06:55N 31°59' W 080°34'0 0.0
2018-Feb-17 06:25N 31°59' W 080°34'0 0.0
2018-Feb-17 05:55N 31°59' W 080°34'0 0.0
2018-Feb-17 05:25N 31°59' W 080°34'0 0.0
2018-Feb-17 04:49N 31°59' W 080°34'0 0.1
2018-Feb-17 04:25N 31°59' W 080°34'0 0.0
2018-Feb-17 03:49N 31°59' W 080°34'0 0.0
2018-Feb-17 03:25N 31°59' W 080°34'0 0.0
2018-Feb-17 02:55N 31°59' W 080°34'0 0.0
2018-Feb-17 02:25N 31°59' W 080°34'0 0.0
2018-Feb-17 01:55N 31°59' W 080°34'0 0.0
2018-Feb-17 01:25N 31°59' W 080°34'0 0.1
2018-Feb-17 00:55N 31°59' W 080°34'0 0.1
2018-Feb-17 00:25N 31°59' W 080°34'0 0.0
2018-Feb-16 23:55N 31°59' W 080°34'0 0.0
2018-Feb-16 23:25N 31°59' W 080°34'0 0.0
2018-Feb-16 22:55N 31°59' W 080°34'0 0.0
2018-Feb-16 22:19N 31°59' W 080°34'0 0.0
2018-Feb-16 21:55N 31°59' W 080°34'0 0.0
2018-Feb-16 21:25N 31°59' W 080°34'0 0.0
2018-Feb-16 20:55N 31°59' W 080°34'0 0.0
2018-Feb-16 20:25N 31°59' W 080°34'0 0.1
2018-Feb-16 19:55N 31°59' W 080°34'0 0.0
2018-Feb-16 19:25N 31°59' W 080°34'0 0.1
2018-Feb-16 18:55N 31°59' W 080°34'0 0.0
2018-Feb-16 18:19N 31°59' W 080°34'0 0.0
2018-Feb-16 17:55N 31°59' W 080°34'0 0.0
2018-Feb-16 17:13N 31°59' W 080°34'0 0.0
2018-Feb-16 16:49N 31°59' W 080°34'0 0.1
2018-Feb-16 16:25N 31°59' W 080°34'0 0.1
2018-Feb-16 15:55N 31°59' W 080°34'0 0.1
2018-Feb-16 15:25N 31°59' W 080°34'0 0.0
2018-Feb-16 14:55N 31°59' W 080°34'0 0.0
2018-Feb-16 14:19N 31°59' W 080°34'0 0.0
2018-Feb-16 13:55N 31°59' W 080°34'0 0.0
2018-Feb-16 13:25N 31°59' W 080°34'0 0.1
2018-Feb-16 12:55N 31°59' W 080°34'0 0.0
2018-Feb-16 12:25N 31°59' W 080°34'0 0.1
2018-Feb-16 11:55N 31°59' W 080°34'0 0.0
2018-Feb-16 11:25N 31°59' W 080°34'0 0.0
2018-Feb-16 10:55N 31°59' W 080°34'0 0.0
2018-Feb-16 10:19N 31°59' W 080°34'0 0.1
2018-Feb-16 09:55N 31°59' W 080°34'0 0.0
2018-Feb-16 08:37N 31°59' W 080°34'0 0.1
2018-Feb-16 08:25N 31°59' W 080°34'0 0.2
2018-Feb-16 07:55N 31°59' W 080°34'0 0.1
2018-Feb-16 07:13N 31°59' W 080°34'0 0.0
2018-Feb-16 06:49N 31°59' W 080°34'0 0.0
2018-Feb-16 06:25N 31°59' W 080°34'0 0.0
2018-Feb-16 05:55N 31°59' W 080°34'0 0.0
2018-Feb-16 05:25N 31°59' W 080°34'0 0.0
2018-Feb-16 04:55N 31°59' W 080°34'0 0.0
2018-Feb-16 04:25N 31°59' W 080°34'0 0.0
2018-Feb-16 03:55N 31°59' W 080°34'0 0.0
2018-Feb-16 03:25N 31°59' W 080°34'0 0.0
2018-Feb-16 02:55N 31°59' W 080°34'0 0.1
2018-Feb-16 02:25N 31°59' W 080°34'0 0.0
2018-Feb-16 01:55N 31°59' W 080°34'0 0.0
2018-Feb-16 01:25N 31°59' W 080°34'0 0.0
2018-Feb-16 00:55N 31°59' W 080°34'0 0.0
2018-Feb-16 00:25N 31°59' W 080°34'0 0.0
2018-Feb-15 23:55N 31°59' W 080°34'0 0.1
2018-Feb-15 23:13N 31°59' W 080°34'0 0.1
2018-Feb-15 22:55N 31°59' W 080°34'0 0.0
2018-Feb-15 22:25N 31°59' W 080°34'0 0.0
2018-Feb-15 21:55N 31°59' W 080°34'0 0.0
2018-Feb-15 21:25N 31°59' W 080°34'0 0.0
2018-Feb-15 20:55N 31°59' W 080°34'0 0.0
2018-Feb-15 20:25N 31°59' W 080°34'0 0.0
2018-Feb-15 18:55N 31°59' W 080°34'0 0.0
2018-Feb-15 18:25N 31°59' W 080°34'0 0.1
2018-Feb-15 17:55N 31°59' W 080°34'0 0.1
2018-Feb-15 17:25N 31°59' W 080°34'0 0.1
2018-Feb-15 16:55N 31°59' W 080°34'0 0.0
2018-Feb-15 16:25N 31°59' W 080°34'0 0.0
2018-Feb-15 15:55N 31°59' W 080°34'0 0.0
2018-Feb-15 15:25N 31°59' W 080°34'0 0.0
2018-Feb-15 14:55N 31°59' W 080°34'0 0.0
2018-Feb-15 13:55N 31°59' W 080°34'1 1.6
2018-Feb-15 13:30N 31°59' W 080°33'4 7.2
2018-Feb-15 13:00N 31°59' W 080°29'5 9.2
2018-Feb-15 12:30N 31°59' W 080°24'5 9.2
2018-Feb-15 12:00N 31°58' W 080°18'5 9.4
2018-Feb-15 11:30N 31°58' W 080°13'18 9.9
2018-Feb-15 09:43N 32°05' W 079°54'311.7
2018-Feb-15 09:28N 32°07' W 079°51'511.7
2018-Feb-15 09:00N 32°09' W 079°45'611.8
2018-Feb-15 08:30N 32°12' W 079°39'611.8
2018-Feb-15 08:00N 32°15' W 079°33'52010.3
2018-Feb-13 05:29N 39°35' W 073°51'912.2
2018-Feb-13 04:45N 39°44' W 073°51'312.2
2018-Feb-13 04:30N 39°47' W 073°51'3011.2
2018-Feb-13 01:47N 40°17' W 073°49'3 9.4
2018-Feb-13 01:26N 40°21' W 073°49'4 9.4
2018-Feb-13 00:58N 40°25' W 073°49'4 8.7
2018-Feb-13 00:30N 40°28' W 073°52'5 9.5
2018-Feb-13 00:00N 40°30' W 073°58'612.6
2018-Feb-12 23:30N 40°36' W 074°02'4 8.0
2018-Feb-12 23:00N 40°40' W 074°03'1 2.7
2018-Feb-12 22:30N 40°40' W 074°05'0 0.0
2018-Feb-12 21:59N 40°40' W 074°05'0 0.0
2018-Feb-12 21:29N 40°40' W 074°05'0 0.0
2018-Feb-12 20:59N 40°40' W 074°05'0 0.0
2018-Feb-12 20:29N 40°40' W 074°05'0 0.0
2018-Feb-12 19:59N 40°40' W 074°05'0 0.0
2018-Feb-12 19:29N 40°40' W 074°05'0 0.0
2018-Feb-12 18:59N 40°40' W 074°05'0 0.0
2018-Feb-12 18:29N 40°40' W 074°05'0 0.0
2018-Feb-12 17:59N 40°40' W 074°05'0 0.0
2018-Feb-12 17:29N 40°40' W 074°05'0 0.0
2018-Feb-12 16:59N 40°40' W 074°05'0 0.0
2018-Feb-12 16:29N 40°40' W 074°05'0 0.0
2018-Feb-12 15:59N 40°40' W 074°05'0 0.0
2018-Feb-12 15:29N 40°40' W 074°05'0 0.0
2018-Feb-12 14:59N 40°40' W 074°05'0 0.0
2018-Feb-12 14:29N 40°40' W 074°05'0 0.0
2018-Feb-12 13:59N 40°40' W 074°05'0 0.0
2018-Feb-12 13:29N 40°40' W 074°05'0 0.0
2018-Feb-12 12:59N 40°40' W 074°05'0 0.0
2018-Feb-12 12:29N 40°40' W 074°05'0 0.0
2018-Feb-12 11:59N 40°40' W 074°05'0 0.0
2018-Feb-12 11:29N 40°40' W 074°05'0 0.0
2018-Feb-12 10:59N 40°40' W 074°05'0 0.0
2018-Feb-12 10:29N 40°40' W 074°05'0 0.0
2018-Feb-12 09:59N 40°40' W 074°05'0 0.0
2018-Feb-12 09:29N 40°40' W 074°05'0 0.0
2018-Feb-12 08:59N 40°40' W 074°05'0 0.0
2018-Feb-12 08:29N 40°40' W 074°05'0 0.0
2018-Feb-12 07:59N 40°40' W 074°05'0 0.0
2018-Feb-12 07:29N 40°40' W 074°05'0 0.0
2018-Feb-12 06:59N 40°40' W 074°05'0 0.0
2018-Feb-12 06:29N 40°40' W 074°05'0 0.0
2018-Feb-12 05:59N 40°40' W 074°05'0 0.0
2018-Feb-12 05:29N 40°40' W 074°05'0 0.0
2018-Feb-12 04:59N 40°40' W 074°05'0 0.0
2018-Feb-12 04:29N 40°40' W 074°05'0 0.0
2018-Feb-12 03:59N 40°40' W 074°05'0 0.0
2018-Feb-12 03:29N 40°40' W 074°05'0 0.0
2018-Feb-12 02:59N 40°40' W 074°05'0 0.0
2018-Feb-12 02:29N 40°40' W 074°05'0 0.0
2018-Feb-12 01:59N 40°40' W 074°05'0 0.0
2018-Feb-12 01:29N 40°40' W 074°05'0 0.0
2018-Feb-12 00:59N 40°40' W 074°05'0 0.0
2018-Feb-12 00:30N 40°40' W 074°05'2 3.4
2018-Feb-12 00:00N 40°39' W 074°03'4 7.5
2018-Feb-11 23:31N 40°35' W 074°02'4 7.7
2018-Feb-11 23:00N 40°32' W 074°01'4 7.7
2018-Feb-11 22:30N 40°30' W 073°56'4 7.8
2018-Feb-11 22:00N 40°28' W 073°51'4 8.3
2018-Feb-11 21:30N 40°27' W 073°46'5 9.6
2018-Feb-11 21:00N 40°27' W 073°40'  
Track history (hours):
 
Tides and Currents Weather Stations Pressure Air Temp Water Temp Dewpoint Dewpoint Depression Visibility Wind Speed Wind Dir Waves Ship Positions

George Washington Bridge

Last reported at 2018-Feb-21 12:53 UTC. Time now 2018-Feb-23 02:35 UTC.
Position N 36°49' W 075°48'.

Length 284.7 m; beam 40 m.

Type: Cargo ship. MMSI: 371799000.

Date/timePositionNaut miles runAvg speedWind from/ knotsBaromVisibWave heightAir tempDewpointWater temp
2018-Feb-21 12:53N 36°49' W 075°48'4 9.5
2018-Feb-21 12:30N 36°51' W 075°52'5 9.2
2018-Feb-21 12:00N 36°54' W 075°56'5 9.3
2018-Feb-21 11:30N 36°57' W 076°01'713.2
2018-Feb-21 11:00N 36°59' W 076°09'713.1
2018-Feb-21 10:30N 37°00' W 076°17'5 9.3
2018-Feb-21 10:00N 36°57' W 076°20'1 2.4
2018-Feb-21 09:29N 36°55' W 076°20'0 0.0
2018-Feb-21 08:56N 36°55' W 076°20'0 0.0
2018-Feb-21 08:26N 36°55' W 076°20'0 0.0
2018-Feb-21 07:59N 36°55' W 076°20'0 0.0
2018-Feb-21 07:29N 36°55' W 076°20'0 0.0
2018-Feb-21 06:59N 36°55' W 076°20'0 0.0
2018-Feb-21 06:29N 36°55' W 076°20'0 0.0
2018-Feb-21 05:59N 36°55' W 076°20'0 0.0
2018-Feb-21 05:29N 36°55' W 076°20'0 0.0
2018-Feb-21 04:59N 36°55' W 076°20'0 0.0
2018-Feb-21 04:29N 36°55' W 076°20'0 0.0
2018-Feb-21 03:59N 36°55' W 076°20'0 0.0
2018-Feb-21 03:29N 36°55' W 076°20'0 0.0
2018-Feb-21 02:59N 36°55' W 076°20'0 0.0
2018-Feb-21 02:29N 36°55' W 076°20'0 0.0
2018-Feb-21 01:59N 36°55' W 076°20'0 0.0
2018-Feb-21 01:29N 36°55' W 076°20'0 0.0
2018-Feb-21 00:59N 36°55' W 076°20'0 0.0
2018-Feb-21 00:29N 36°55' W 076°20'0 0.0
2018-Feb-20 23:59N 36°55' W 076°20'0 0.0
2018-Feb-20 23:29N 36°55' W 076°20'0 0.0
2018-Feb-20 22:59N 36°55' W 076°20'0 0.0
2018-Feb-20 22:29N 36°55' W 076°20'0 0.0
2018-Feb-20 21:56N 36°55' W 076°20'0 0.0
2018-Feb-20 21:29N 36°55' W 076°20'0 0.0
2018-Feb-20 20:44N 36°55' W 076°20'0 0.0
2018-Feb-20 20:26N 36°55' W 076°20'0 0.0
2018-Feb-20 19:59N 36°55' W 076°20'0 0.0
2018-Feb-20 19:26N 36°55' W 076°20'0 0.0
2018-Feb-20 18:59N 36°55' W 076°20'0 0.0
2018-Feb-20 18:29N 36°55' W 076°20'0 0.0
2018-Feb-20 17:02N 36°55' W 076°20'0 0.0
2018-Feb-20 16:50N 36°55' W 076°20'0 0.0
2018-Feb-20 16:23N 36°55' W 076°20'0 0.0
2018-Feb-20 15:56N 36°55' W 076°20'0 0.0
2018-Feb-20 15:26N 36°55' W 076°20'0 0.0
2018-Feb-20 14:59N 36°55' W 076°20'0 0.0
2018-Feb-20 14:29N 36°55' W 076°20'0 0.0
2018-Feb-20 13:59N 36°55' W 076°20'0 0.0
2018-Feb-20 13:29N 36°55' W 076°20'0 0.0
2018-Feb-20 12:59N 36°55' W 076°20'0 0.0
2018-Feb-20 12:29N 36°55' W 076°20'0 0.0
2018-Feb-20 11:50N 36°55' W 076°20'0 0.0
2018-Feb-20 11:29N 36°55' W 076°20'1 1.1
2018-Feb-20 11:00N 36°56' W 076°20'3 5.5
2018-Feb-20 10:30N 36°59' W 076°20'5 8.6
2018-Feb-20 09:58N 37°01' W 076°15'612.2
2018-Feb-20 09:27N 36°59' W 076°08'612.9
2018-Feb-20 09:00N 36°57' W 076°01'4 7.8
2018-Feb-20 08:30N 36°56' W 075°56'4 8.0
2018-Feb-20 08:00N 36°53' W 075°52'5 9.1
2018-Feb-20 07:24N 36°50' W 075°46'4 8.5
2018-Feb-20 06:55N 36°47' W 075°43'37914.6
2018-Feb-19 04:56N 31°56' W 080°37'4 9.5
2018-Feb-19 04:30N 31°57' W 080°42'611.7
2018-Feb-19 04:00N 32°00' W 080°47'5 9.6
2018-Feb-19 03:30N 32°02' W 080°53'4 8.7
2018-Feb-19 03:01N 32°04' W 080°57'4 7.9
2018-Feb-19 02:31N 32°05' W 081°02'3 5.6
2018-Feb-19 02:00N 32°05' W 081°05'3 5.7
2018-Feb-19 01:31N 32°07' W 081°07'1 2.8
2018-Feb-19 01:01N 32°08' W 081°08'0 0.9
2018-Feb-19 00:30N 32°08' W 081°08'0 0.0
2018-Feb-18 23:54N 32°08' W 081°08'0 0.0
2018-Feb-18 23:30N 32°08' W 081°08'0 0.0
2018-Feb-18 23:00N 32°08' W 081°08'0 0.0
2018-Feb-18 22:30N 32°08' W 081°08'0 0.0
2018-Feb-18 22:00N 32°08' W 081°08'0 0.0
2018-Feb-18 21:30N 32°08' W 081°08'0 0.0
2018-Feb-18 21:00N 32°08' W 081°08'0 0.0
2018-Feb-18 20:30N 32°08' W 081°08'0 0.0
2018-Feb-18 20:00N 32°08' W 081°08'0 0.0
2018-Feb-18 19:30N 32°08' W 081°08'0 0.0
2018-Feb-18 19:00N 32°08' W 081°08'0 0.0
2018-Feb-18 18:30N 32°08' W 081°08'0 0.0
2018-Feb-18 17:54N 32°08' W 081°08'0 0.0
2018-Feb-18 17:30N 32°08' W 081°08'0 0.0
2018-Feb-18 17:00N 32°08' W 081°08'0 0.0
2018-Feb-18 16:30N 32°08' W 081°08'0 0.0
2018-Feb-18 16:00N 32°08' W 081°08'0 0.0
2018-Feb-18 15:30N 32°08' W 081°08'0 0.0
2018-Feb-18 15:00N 32°08' W 081°08'0 0.0
2018-Feb-18 14:30N 32°08' W 081°08'0 0.0
2018-Feb-18 14:00N 32°08' W 081°08'0 0.0
2018-Feb-18 13:30N 32°08' W 081°08'0 0.0
2018-Feb-18 13:00N 32°08' W 081°08'0 0.0
2018-Feb-18 12:30N 32°08' W 081°08'0 0.0
2018-Feb-18 12:00N 32°08' W 081°08'0 0.0
2018-Feb-18 11:30N 32°08' W 081°08'0 0.0
2018-Feb-18 11:00N 32°08' W 081°08'0 0.0
2018-Feb-18 10:30N 32°08' W 081°08'0 0.0
2018-Feb-18 09:54N 32°08' W 081°08'0 0.0
2018-Feb-18 09:30N 32°08' W 081°08'0 0.0
2018-Feb-18 09:00N 32°08' W 081°08'0 0.0
2018-Feb-18 08:30N 32°08' W 081°08'0 0.0
2018-Feb-18 08:00N 32°08' W 081°08'0 0.0
2018-Feb-18 07:30N 32°08' W 081°08'0 0.0
2018-Feb-18 07:00N 32°08' W 081°08'0 0.0
2018-Feb-18 06:30N 32°08' W 081°08'0 0.0
2018-Feb-18 06:00N 32°08' W 081°08'0 0.0
2018-Feb-18 05:30N 32°08' W 081°08'0 0.0
2018-Feb-18 05:00N 32°08' W 081°08'0 0.0
2018-Feb-18 04:30N 32°08' W 081°08'0 0.0
2018-Feb-18 03:54N 32°08' W 081°08'0 0.0
2018-Feb-18 03:24N 32°08' W 081°08'0 0.0
2018-Feb-18 03:00N 32°08' W 081°08'0 0.0
2018-Feb-18 02:30N 32°08' W 081°08'0 0.0
2018-Feb-18 02:00N 32°08' W 081°08'0 0.0
2018-Feb-18 01:30N 32°08' W 081°08'0 0.0
2018-Feb-18 01:00N 32°08' W 081°08'0 0.0
2018-Feb-18 00:30N 32°08' W 081°08'0 0.0
2018-Feb-18 00:00N 32°08' W 081°08'0 0.0
2018-Feb-17 23:30N 32°08' W 081°08'0 0.0
2018-Feb-17 23:00N 32°08' W 081°08'0 0.0
2018-Feb-17 22:30N 32°08' W 081°08'0 0.0
2018-Feb-17 22:00N 32°08' W 081°08'0 0.0
2018-Feb-17 21:30N 32°08' W 081°08'0 0.0
2018-Feb-17 21:00N 32°08' W 081°08'0 0.0
2018-Feb-17 20:30N 32°08' W 081°08'0 0.0
2018-Feb-17 20:00N 32°08' W 081°08'0 0.0
2018-Feb-17 19:30N 32°08' W 081°08'0 0.0
2018-Feb-17 19:00N 32°08' W 081°08'0 0.0
2018-Feb-17 18:30N 32°08' W 081°08'0 0.0
2018-Feb-17 18:00N 32°08' W 081°08'0 0.0
2018-Feb-17 17:30N 32°08' W 081°08'0 0.0
2018-Feb-17 17:00N 32°08' W 081°08'0 0.0
2018-Feb-17 16:18N 32°08' W 081°08'0 0.0
2018-Feb-17 16:00N 32°08' W 081°08'1 2.3
2018-Feb-17 15:30N 32°07' W 081°07'3 6.1
2018-Feb-17 15:00N 32°05' W 081°04'4 8.4
2018-Feb-17 14:30N 32°06' W 080°60'611.3
2018-Feb-17 14:00N 32°02' W 080°54'713.0
2018-Feb-17 13:28N 31°60' W 080°47'612.5
2018-Feb-17 12:58N 31°57' W 080°40'4 8.1
2018-Feb-17 12:30N 31°58' W 080°36'1 2.6
2018-Feb-17 12:00N 31°58' W 080°35'1 0.9
2018-Feb-17 11:19N 31°59' W 080°34'0 0.0
2018-Feb-17 10:49N 31°59' W 080°34'0 0.0
2018-Feb-17 10:25N 31°59' W 080°34'0 0.1
2018-Feb-17 09:55N 31°59' W 080°34'0 0.3
2018-Feb-17 09:25N 31°59' W 080°34'0 0.2
2018-Feb-17 08:55N 31°59' W 080°34'0 0.0
2018-Feb-17 08:19N 31°59' W 080°34'0 0.0
2018-Feb-17 07:55N 31°59' W 080°34'0 0.0
2018-Feb-17 07:19N 31°59' W 080°34'0 0.0
2018-Feb-17 06:55N 31°59' W 080°34'0 0.0
2018-Feb-17 06:25N 31°59' W 080°34'0 0.0
2018-Feb-17 05:55N 31°59' W 080°34'0 0.0
2018-Feb-17 05:25N 31°59' W 080°34'0 0.0
2018-Feb-17 04:49N 31°59' W 080°34'0 0.1
2018-Feb-17 04:25N 31°59' W 080°34'0 0.0
2018-Feb-17 03:49N 31°59' W 080°34'0 0.0
2018-Feb-17 03:25N 31°59' W 080°34'0 0.0
2018-Feb-17 02:55N 31°59' W 080°34'0 0.0
2018-Feb-17 02:25N 31°59' W 080°34'0 0.0
2018-Feb-17 01:55N 31°59' W 080°34'0 0.0
2018-Feb-17 01:25N 31°59' W 080°34'0 0.1
2018-Feb-17 00:55N 31°59' W 080°34'0 0.1
2018-Feb-17 00:25N 31°59' W 080°34'0 0.0
2018-Feb-16 23:55N 31°59' W 080°34'0 0.0
2018-Feb-16 23:25N 31°59' W 080°34'0 0.0
2018-Feb-16 22:55N 31°59' W 080°34'0 0.0
2018-Feb-16 22:19N 31°59' W 080°34'0 0.0
2018-Feb-16 21:55N 31°59' W 080°34'0 0.0
2018-Feb-16 21:25N 31°59' W 080°34'0 0.0
2018-Feb-16 20:55N 31°59' W 080°34'0 0.0
2018-Feb-16 20:25N 31°59' W 080°34'0 0.1
2018-Feb-16 19:55N 31°59' W 080°34'0 0.0
2018-Feb-16 19:25N 31°59' W 080°34'0 0.1
2018-Feb-16 18:55N 31°59' W 080°34'0 0.0
2018-Feb-16 18:19N 31°59' W 080°34'0 0.0
2018-Feb-16 17:55N 31°59' W 080°34'0 0.0
2018-Feb-16 17:13N 31°59' W 080°34'0 0.0
2018-Feb-16 16:49N 31°59' W 080°34'0 0.1
2018-Feb-16 16:25N 31°59' W 080°34'0 0.1
2018-Feb-16 15:55N 31°59' W 080°34'0 0.1
2018-Feb-16 15:25N 31°59' W 080°34'0 0.0
2018-Feb-16 14:55N 31°59' W 080°34'0 0.0
2018-Feb-16 14:19N 31°59' W 080°34'0 0.0
2018-Feb-16 13:55N 31°59' W 080°34'0 0.0
2018-Feb-16 13:25N 31°59' W 080°34'0 0.1
2018-Feb-16 12:55N 31°59' W 080°34'0 0.0
2018-Feb-16 12:25N 31°59' W 080°34'0 0.1
2018-Feb-16 11:55N 31°59' W 080°34'0 0.0
2018-Feb-16 11:25N 31°59' W 080°34'0 0.0
2018-Feb-16 10:55N 31°59' W 080°34'0 0.0
2018-Feb-16 10:19N 31°59' W 080°34'0 0.1
2018-Feb-16 09:55N 31°59' W 080°34'0 0.0
2018-Feb-16 08:37N 31°59' W 080°34'0 0.1
2018-Feb-16 08:25N 31°59' W 080°34'0 0.2
2018-Feb-16 07:55N 31°59' W 080°34'0 0.1
2018-Feb-16 07:13N 31°59' W 080°34'0 0.0
2018-Feb-16 06:49N 31°59' W 080°34'0 0.0
2018-Feb-16 06:25N 31°59' W 080°34'0 0.0
2018-Feb-16 05:55N 31°59' W 080°34'0 0.0
2018-Feb-16 05:25N 31°59' W 080°34'0 0.0
2018-Feb-16 04:55N 31°59' W 080°34'0 0.0
2018-Feb-16 04:25N 31°59' W 080°34'0 0.0
2018-Feb-16 03:55N 31°59' W 080°34'0 0.0
2018-Feb-16 03:25N 31°59' W 080°34'0 0.0
2018-Feb-16 02:55N 31°59' W 080°34'0 0.1
2018-Feb-16 02:25N 31°59' W 080°34'0 0.0
2018-Feb-16 01:55N 31°59' W 080°34'0 0.0
2018-Feb-16 01:25N 31°59' W 080°34'0 0.0
2018-Feb-16 00:55N 31°59' W 080°34'0 0.0
2018-Feb-16 00:25N 31°59' W 080°34'0 0.0
2018-Feb-15 23:55N 31°59' W 080°34'0 0.1
2018-Feb-15 23:13N 31°59' W 080°34'0 0.1
2018-Feb-15 22:55N 31°59' W 080°34'0 0.0
2018-Feb-15 22:25N 31°59' W 080°34'0 0.0
2018-Feb-15 21:55N 31°59' W 080°34'0 0.0
2018-Feb-15 21:25N 31°59' W 080°34'0 0.0
2018-Feb-15 20:55N 31°59' W 080°34'0 0.0
2018-Feb-15 20:25N 31°59' W 080°34'0 0.0
2018-Feb-15 18:55N 31°59' W 080°34'0 0.0
2018-Feb-15 18:25N 31°59' W 080°34'0 0.1
2018-Feb-15 17:55N 31°59' W 080°34'0 0.1
2018-Feb-15 17:25N 31°59' W 080°34'0 0.1
2018-Feb-15 16:55N 31°59' W 080°34'0 0.0
2018-Feb-15 16:25N 31°59' W 080°34'0 0.0
2018-Feb-15 15:55N 31°59' W 080°34'0 0.0
2018-Feb-15 15:25N 31°59' W 080°34'0 0.0
2018-Feb-15 14:55N 31°59' W 080°34'0 0.0
2018-Feb-15 13:55N 31°59' W 080°34'1 1.6
2018-Feb-15 13:30N 31°59' W 080°33'4 7.2
2018-Feb-15 13:00N 31°59' W 080°29'5 9.2
2018-Feb-15 12:30N 31°59' W 080°24'5 9.2
2018-Feb-15 12:00N 31°58' W 080°18'5 9.4
2018-Feb-15 11:30N 31°58' W 080°13'18 9.9
2018-Feb-15 09:43N 32°05' W 079°54'311.7
2018-Feb-15 09:28N 32°07' W 079°51'511.7
2018-Feb-15 09:00N 32°09' W 079°45'611.8
2018-Feb-15 08:30N 32°12' W 079°39'611.8
2018-Feb-15 08:00N 32°15' W 079°33'52010.3
2018-Feb-13 05:29N 39°35' W 073°51'912.2
2018-Feb-13 04:45N 39°44' W 073°51'312.2
2018-Feb-13 04:30N 39°47' W 073°51'3011.2
2018-Feb-13 01:47N 40°17' W 073°49'3 9.4
2018-Feb-13 01:26N 40°21' W 073°49'4 9.4
2018-Feb-13 00:58N 40°25' W 073°49'4 8.7
2018-Feb-13 00:30N 40°28' W 073°52'5 9.5
2018-Feb-13 00:00N 40°30' W 073°58'612.6
2018-Feb-12 23:30N 40°36' W 074°02'4 8.0
2018-Feb-12 23:00N 40°40' W 074°03'1 2.7
2018-Feb-12 22:30N 40°40' W 074°05'0 0.0
2018-Feb-12 21:59N 40°40' W 074°05'0 0.0
2018-Feb-12 21:29N 40°40' W 074°05'0 0.0
2018-Feb-12 20:59N 40°40' W 074°05'0 0.0
2018-Feb-12 20:29N 40°40' W 074°05'0 0.0
2018-Feb-12 19:59N 40°40' W 074°05'0 0.0
2018-Feb-12 19:29N 40°40' W 074°05'0 0.0
2018-Feb-12 18:59N 40°40' W 074°05'0 0.0
2018-Feb-12 18:29N 40°40' W 074°05'0 0.0
2018-Feb-12 17:59N 40°40' W 074°05'0 0.0
2018-Feb-12 17:29N 40°40' W 074°05'0 0.0
2018-Feb-12 16:59N 40°40' W 074°05'0 0.0
2018-Feb-12 16:29N 40°40' W 074°05'0 0.0
2018-Feb-12 15:59N 40°40' W 074°05'0 0.0
2018-Feb-12 15:29N 40°40' W 074°05'0 0.0
2018-Feb-12 14:59N 40°40' W 074°05'0 0.0
2018-Feb-12 14:29N 40°40' W 074°05'0 0.0
2018-Feb-12 13:59N 40°40' W 074°05'0 0.0
2018-Feb-12 13:29N 40°40' W 074°05'0 0.0
2018-Feb-12 12:59N 40°40' W 074°05'0 0.0
2018-Feb-12 12:29N 40°40' W 074°05'0 0.0
2018-Feb-12 11:59N 40°40' W 074°05'0 0.0
2018-Feb-12 11:29N 40°40' W 074°05'0 0.0
2018-Feb-12 10:59N 40°40' W 074°05'0 0.0
2018-Feb-12 10:29N 40°40' W 074°05'0 0.0
2018-Feb-12 09:59N 40°40' W 074°05'0 0.0
2018-Feb-12 09:29N 40°40' W 074°05'0 0.0
2018-Feb-12 08:59N 40°40' W 074°05'0 0.0
2018-Feb-12 08:29N 40°40' W 074°05'0 0.0
2018-Feb-12 07:59N 40°40' W 074°05'0 0.0
2018-Feb-12 07:29N 40°40' W 074°05'0 0.0
2018-Feb-12 06:59N 40°40' W 074°05'0 0.0
2018-Feb-12 06:29N 40°40' W 074°05'0 0.0
2018-Feb-12 05:59N 40°40' W 074°05'0 0.0
2018-Feb-12 05:29N 40°40' W 074°05'0 0.0
2018-Feb-12 04:59N 40°40' W 074°05'0 0.0
2018-Feb-12 04:29N 40°40' W 074°05'0 0.0
2018-Feb-12 03:59N 40°40' W 074°05'0 0.0
2018-Feb-12 03:29N 40°40' W 074°05'0 0.0
2018-Feb-12 02:59N 40°40' W 074°05'0 0.0
2018-Feb-12 02:29N 40°40' W 074°05'0 0.0
2018-Feb-12 01:59N 40°40' W 074°05'0 0.0
2018-Feb-12 01:29N 40°40' W 074°05'0 0.0
2018-Feb-12 00:59N 40°40' W 074°05'0 0.0
2018-Feb-12 00:30N 40°40' W 074°05'2 3.4
2018-Feb-12 00:00N 40°39' W 074°03'4 7.5
2018-Feb-11 23:31N 40°35' W 074°02'4 7.7
2018-Feb-11 23:00N 40°32' W 074°01'4 7.7
2018-Feb-11 22:30N 40°30' W 073°56'4 7.8
2018-Feb-11 22:00N 40°28' W 073°51'4 8.3
2018-Feb-11 21:30N 40°27' W 073°46'5 9.6
2018-Feb-11 21:00N 40°27' W 073°40'  

Dump ship's entire track history